createdAt,value
2022-10-15T00:01:47.832Z,100.00
2022-10-15T00:04:16.807Z,100.00
2022-10-15T00:06:44.979Z,100.00
2022-10-15T00:09:15.019Z,100.00
2022-10-15T00:11:45.915Z,100.00
2022-10-15T00:14:13.889Z,100.00
2022-10-15T00:16:42.111Z,100.00
2022-10-15T00:19:10.610Z,100.00
2022-10-15T00:21:38.994Z,100.00
2022-10-15T00:24:07.735Z,100.00
2022-10-15T00:26:35.940Z,100.00
2022-10-15T00:29:04.767Z,100.00
2022-10-15T00:31:35.686Z,100.00
2022-10-15T00:34:04.034Z,100.00
2022-10-15T00:36:38.638Z,100.00
2022-10-15T00:39:07.969Z,100.00
2022-10-15T00:41:43.302Z,100.00
2022-10-15T00:44:26.767Z,100.00
2022-10-15T00:46:57.250Z,100.00
2022-10-15T00:49:55.525Z,100.00
2022-10-15T00:52:32.515Z,100.00
2022-10-15T00:55:41.801Z,100.00
2022-10-15T00:58:15.919Z,100.00
2022-10-15T01:00:44.355Z,100.00
2022-10-15T01:03:12.962Z,100.00
2022-10-15T01:05:48.009Z,100.00
2022-10-15T01:08:17.585Z,100.00
2022-10-15T01:11:07.541Z,100.00
2022-10-15T01:13:55.145Z,100.00
2022-10-15T01:16:41.387Z,100.00
2022-10-15T01:19:43.327Z,100.00
2022-10-15T01:22:21.885Z,100.00
2022-10-15T01:24:53.992Z,100.00
2022-10-15T01:27:43.924Z,100.00
2022-10-15T01:30:21.068Z,100.00
2022-10-15T01:33:05.673Z,100.00
2022-10-15T01:35:52.528Z,100.00
2022-10-15T01:38:36.723Z,100.00
2022-10-15T01:41:31.225Z,100.00
2022-10-15T01:44:05.238Z,100.00
2022-10-15T01:47:05.676Z,100.00
2022-10-15T01:49:39.243Z,100.00
2022-10-15T01:52:13.919Z,100.00
2022-10-15T01:54:45.351Z,100.00
2022-10-15T01:57:15.323Z,100.00
2022-10-15T01:59:44.805Z,100.00
2022-10-15T02:02:13.876Z,100.00
2022-10-15T02:04:42.062Z,100.00
2022-10-15T02:07:31.271Z,100.00
2022-10-15T02:10:18.644Z,100.00
2022-10-15T02:13:10.815Z,100.00
2022-10-15T02:15:51.111Z,100.00
2022-10-15T02:18:24.606Z,100.00
2022-10-15T02:21:07.935Z,100.00
2022-10-15T02:23:49.847Z,100.00
2022-10-15T02:26:19.904Z,100.00
2022-10-15T02:28:55.216Z,100.00
2022-10-15T02:31:24.069Z,100.00
2022-10-15T02:33:55.974Z,100.00
2022-10-15T02:36:24.807Z,100.00
2022-10-15T02:38:56.864Z,100.00
2022-10-15T02:41:29.022Z,100.00
2022-10-15T02:43:57.971Z,100.00
2022-10-15T02:46:26.146Z,100.00
2022-10-15T02:48:54.197Z,100.00
2022-10-15T02:51:22.330Z,100.00
2022-10-15T02:53:50.330Z,100.00
2022-10-15T02:56:20.383Z,100.00
2022-10-15T02:58:49.008Z,100.00
2022-10-15T03:01:17.197Z,100.00
2022-10-15T03:03:45.886Z,100.00
2022-10-15T03:06:14.783Z,100.00
2022-10-15T03:08:44.495Z,100.00
2022-10-15T03:11:12.708Z,100.00
2022-10-15T03:13:41.375Z,100.00
2022-10-15T03:16:11.177Z,100.00
2022-10-15T03:18:40.832Z,100.00
2022-10-15T03:21:12.961Z,100.00
2022-10-15T03:23:41.238Z,100.00
2022-10-15T03:26:14.117Z,100.00
2022-10-15T03:28:42.915Z,100.00
2022-10-15T03:31:11.222Z,100.00
2022-10-15T03:33:39.422Z,100.00
2022-10-15T03:36:08.354Z,100.00
2022-10-15T03:38:37.302Z,100.00
2022-10-15T03:41:08.031Z,100.00
2022-10-15T03:43:42.772Z,100.00
2022-10-15T03:46:11.637Z,100.00
2022-10-15T03:48:42.950Z,100.00
2022-10-15T03:51:18.171Z,100.00
2022-10-15T03:53:51.418Z,100.00
2022-10-15T03:56:21.421Z,100.00
2022-10-15T03:58:52.544Z,100.00
2022-10-15T04:01:20.702Z,100.00
2022-10-15T04:03:54.157Z,100.00
2022-10-15T04:06:22.654Z,100.00
2022-10-15T04:11:26.478Z,100.00
2022-10-15T04:14:02.862Z,100.00
2022-10-15T04:16:32.831Z,100.00
2022-10-15T04:19:08.667Z,100.00
2022-10-15T04:21:39.510Z,100.00
2022-10-15T04:24:09.227Z,100.00
2022-10-15T04:26:40.424Z,100.00
2022-10-15T04:29:09.109Z,100.00
2022-10-15T04:31:37.887Z,100.00
2022-10-15T04:34:06.691Z,100.00
2022-10-15T04:36:35.140Z,100.00
2022-10-15T04:39:19.923Z,100.00
2022-10-15T04:41:49.520Z,100.00
2022-10-15T04:44:27.713Z,100.00
2022-10-15T04:46:59.519Z,100.00
2022-10-15T04:49:49.473Z,100.00
2022-10-15T04:52:38.198Z,100.00
2022-10-15T04:55:12.403Z,100.00
2022-10-15T04:57:40.593Z,100.00
2022-10-15T05:00:10.351Z,100.00
2022-10-15T05:02:44.187Z,100.00
2022-10-15T05:05:29.742Z,100.00
2022-10-15T05:08:01.554Z,100.00
2022-10-15T05:10:30.217Z,100.00
2022-10-15T05:12:59.127Z,100.00
2022-10-15T05:15:32.661Z,100.00
2022-10-15T05:18:01.193Z,100.00
2022-10-15T05:20:34.789Z,100.00
2022-10-15T05:23:04.483Z,100.00
2022-10-15T05:25:33.716Z,100.00
2022-10-15T05:28:01.912Z,100.00
2022-10-15T05:30:30.200Z,100.00
2022-10-15T05:33:00.011Z,100.00
2022-10-15T05:35:28.240Z,100.00
2022-10-15T05:38:00.439Z,100.00
2022-10-15T05:40:28.646Z,100.00
2022-10-15T05:43:04.946Z,100.00
2022-10-15T05:45:33.144Z,100.00
2022-10-15T05:48:06.124Z,100.00
2022-10-15T05:50:34.427Z,100.00
2022-10-15T05:53:05.819Z,100.00
2022-10-15T05:55:48.670Z,100.00
2022-10-15T05:58:16.913Z,100.00
2022-10-15T06:00:45.233Z,100.00
2022-10-15T06:03:14.903Z,100.00
2022-10-15T06:05:43.036Z,100.00
2022-10-15T06:08:11.592Z,100.00
2022-10-15T06:10:40.048Z,100.00
2022-10-15T06:13:10.036Z,100.00
2022-10-15T06:15:58.998Z,100.00
2022-10-15T06:18:27.642Z,100.00
2022-10-15T06:21:00.686Z,100.00
2022-10-15T06:23:28.945Z,100.00
2022-10-15T06:25:59.373Z,100.00
2022-10-15T06:28:28.367Z,100.00
2022-10-15T06:31:01.799Z,100.00
2022-10-15T06:33:32.798Z,100.00
2022-10-15T06:36:07.260Z,100.00
2022-10-15T06:38:36.176Z,100.00
2022-10-15T06:41:05.989Z,100.00
2022-10-15T06:43:35.412Z,100.00
2022-10-15T06:46:07.495Z,100.00
2022-10-15T06:48:37.698Z,100.00
2022-10-15T06:51:05.967Z,100.00
2022-10-15T06:53:34.467Z,100.00
2022-10-15T06:56:04.271Z,100.00
2022-10-15T06:58:37.595Z,100.00
2022-10-15T07:01:06.822Z,100.00
2022-10-15T07:03:36.241Z,100.00
2022-10-15T07:06:06.872Z,100.00
2022-10-15T07:08:36.100Z,100.00
2022-10-15T07:11:09.344Z,100.00
2022-10-15T07:13:40.093Z,100.00
2022-10-15T07:16:11.862Z,100.00
2022-10-15T07:18:40.462Z,100.00
2022-10-15T07:23:44.225Z,100.00
2022-10-15T07:26:13.531Z,100.00
2022-10-15T07:28:44.688Z,100.00
2022-10-15T07:31:13.643Z,100.00
2022-10-15T07:33:43.957Z,100.00
2022-10-15T07:36:13.258Z,100.00
2022-10-15T07:38:47.756Z,100.00
2022-10-15T07:41:16.243Z,100.00
2022-10-15T07:43:44.691Z,100.00
2022-10-15T07:46:15.525Z,100.00
2022-10-15T07:48:43.866Z,100.00
2022-10-15T07:51:14.444Z,100.00
2022-10-15T07:53:45.737Z,100.00
2022-10-15T07:56:15.942Z,100.00
2022-10-15T07:58:51.402Z,100.00
2022-10-15T08:01:21.234Z,100.00
2022-10-15T08:03:49.732Z,100.00
2022-10-15T08:06:19.997Z,100.00
2022-10-15T08:08:48.222Z,100.00
2022-10-15T08:11:17.104Z,100.00
2022-10-15T08:13:49.560Z,100.00
2022-10-15T08:16:19.772Z,100.00
2022-10-15T08:18:58.392Z,100.00
2022-10-15T08:21:29.207Z,100.00
2022-10-15T08:23:57.365Z,100.00
2022-10-15T08:26:35.012Z,100.00
2022-10-15T08:29:05.218Z,100.00
2022-10-15T08:31:34.559Z,100.00
2022-10-15T08:34:03.225Z,100.00
2022-10-15T08:36:33.739Z,100.00
2022-10-15T08:39:02.150Z,100.00
2022-10-15T08:41:56.208Z,100.00
2022-10-15T08:44:34.916Z,100.00
2022-10-15T08:47:05.197Z,100.00
2022-10-15T08:49:42.837Z,100.00
2022-10-15T08:52:42.737Z,100.00
2022-10-15T08:55:21.711Z,100.00
2022-10-15T08:57:58.094Z,100.00
2022-10-15T09:00:30.518Z,100.00
2022-10-15T09:03:05.366Z,100.00
2022-10-15T09:05:57.741Z,100.00
2022-10-15T09:08:48.457Z,100.00
2022-10-15T09:11:49.580Z,100.00
2022-10-15T09:14:26.871Z,100.00
2022-10-15T09:16:55.490Z,100.00
2022-10-15T09:19:26.137Z,100.00
2022-10-15T09:21:55.031Z,100.00
2022-10-15T09:24:26.269Z,100.00
2022-10-15T09:27:09.251Z,100.00
2022-10-15T09:29:58.327Z,100.00
2022-10-15T09:32:49.489Z,100.00
2022-10-15T09:35:45.293Z,100.00
2022-10-15T09:38:37.116Z,100.00
2022-10-15T09:41:43.349Z,100.00
2022-10-15T09:44:17.428Z,100.00
2022-10-15T09:46:51.712Z,100.00
2022-10-15T09:49:24.875Z,100.00
2022-10-15T09:52:19.362Z,100.00
2022-10-15T09:54:56.462Z,100.00
2022-10-15T09:57:26.588Z,100.00
2022-10-15T10:00:02.049Z,100.00
2022-10-15T10:02:44.199Z,100.00
2022-10-15T10:05:30.403Z,100.00
2022-10-15T10:08:27.903Z,100.00
2022-10-15T10:11:14.410Z,100.00
2022-10-15T10:14:01.030Z,100.00
2022-10-15T10:16:30.487Z,100.00
2022-10-15T10:19:16.295Z,100.00
2022-10-15T10:21:46.763Z,100.00
2022-10-15T10:24:41.776Z,100.00
2022-10-15T10:27:29.436Z,100.00
2022-10-15T10:30:01.624Z,100.00
2022-10-15T10:32:33.149Z,100.00
2022-10-15T10:35:25.801Z,100.00
2022-10-15T10:37:56.544Z,100.00
2022-10-15T10:40:37.753Z,100.00
2022-10-15T10:43:17.899Z,100.00
2022-10-15T10:46:01.662Z,100.00
2022-10-15T10:48:44.040Z,100.00
2022-10-15T10:51:19.452Z,100.00
2022-10-15T10:53:57.957Z,100.00
2022-10-15T10:56:38.816Z,100.00
2022-10-15T10:59:23.497Z,100.00
2022-10-15T11:01:53.002Z,100.00
2022-10-15T11:04:30.559Z,100.00
2022-10-15T11:07:06.176Z,100.00
2022-10-15T11:09:56.449Z,100.00
2022-10-15T11:12:43.153Z,100.00
2022-10-15T11:15:48.945Z,100.00
2022-10-15T11:18:38.050Z,100.00
2022-10-15T11:21:14.724Z,100.00
2022-10-15T11:24:05.866Z,100.00
2022-10-15T11:27:09.858Z,100.00
2022-10-15T11:30:15.034Z,100.00
2022-10-15T11:33:13.352Z,100.00
2022-10-15T11:35:53.720Z,100.00
2022-10-15T11:38:52.720Z,100.00
2022-10-15T11:41:40.939Z,100.00
2022-10-15T11:44:19.717Z,100.00
2022-10-15T11:46:59.322Z,100.00
2022-10-15T11:50:02.454Z,100.00
2022-10-15T11:52:55.519Z,100.00
2022-10-15T11:55:29.087Z,100.00
2022-10-15T11:58:02.408Z,100.00
2022-10-15T12:00:38.616Z,100.00
2022-10-15T12:03:26.587Z,100.00
2022-10-15T12:05:55.997Z,100.00
2022-10-15T12:08:28.642Z,100.00
2022-10-15T12:11:03.827Z,100.00
2022-10-15T12:13:48.578Z,100.00
2022-10-15T12:16:26.850Z,100.00
2022-10-15T12:19:08.001Z,100.00
2022-10-15T12:21:39.940Z,100.00
2022-10-15T12:24:44.838Z,100.00
2022-10-15T12:27:19.712Z,100.00
2022-10-15T12:29:57.142Z,100.00
2022-10-15T12:32:36.085Z,100.00
2022-10-15T12:37:51.088Z,100.00
2022-10-15T12:40:28.377Z,100.00
2022-10-15T12:43:05.503Z,100.00
2022-10-15T12:45:40.458Z,100.00
2022-10-15T12:48:09.428Z,100.00
2022-10-15T12:50:41.142Z,100.00
2022-10-15T12:53:28.953Z,100.00
2022-10-15T12:56:13.731Z,100.00
2022-10-15T12:58:53.396Z,100.00
2022-10-15T13:01:22.334Z,100.00
2022-10-15T13:03:53.323Z,100.00
2022-10-15T13:06:21.453Z,100.00
2022-10-15T13:08:55.279Z,100.00
2022-10-15T13:11:44.264Z,100.00
2022-10-15T13:14:21.791Z,100.00
2022-10-15T13:16:50.823Z,100.00
2022-10-15T13:19:27.459Z,97.55
2022-10-15T13:22:03.727Z,95.65
2022-10-15T13:24:45.701Z,93.43
2022-10-15T13:27:25.302Z,94.96
2022-10-15T13:30:00.143Z,98.45
2022-10-15T13:32:33.060Z,99.27
2022-10-15T13:35:11.141Z,99.53
2022-10-15T13:37:48.565Z,94.47
2022-10-15T13:40:24.194Z,90.52
2022-10-15T13:43:06.953Z,95.86
2022-10-15T13:45:37.574Z,89.54
2022-10-15T13:48:13.848Z,85.95
2022-10-15T13:50:48.175Z,85.78
2022-10-15T13:53:32.398Z,85.54
2022-10-15T13:56:05.499Z,83.13
2022-10-15T13:58:38.236Z,81.11
2022-10-15T14:01:15.824Z,81.56
2022-10-15T14:04:03.998Z,82.80
2022-10-15T14:06:39.926Z,87.31
2022-10-15T14:09:23.084Z,83.76
2022-10-15T14:11:59.205Z,86.40
2022-10-15T14:14:42.128Z,85.20
2022-10-15T14:17:22.570Z,83.68
2022-10-15T14:20:25.168Z,88.50
2022-10-15T14:22:49.286Z,87.10
2022-10-15T14:25:25.287Z,84.22
2022-10-15T14:27:55.711Z,90.54
2022-10-15T14:30:33.314Z,90.50
2022-10-15T14:33:01.536Z,86.50
2022-10-15T14:35:41.059Z,88.95
2022-10-15T14:38:11.795Z,92.45
2022-10-15T14:40:40.193Z,96.04
2022-10-15T14:43:18.332Z,99.38
2022-10-15T14:45:53.162Z,100.00
2022-10-15T14:48:35.434Z,100.00
2022-10-15T14:51:07.783Z,100.00
2022-10-15T14:53:39.796Z,100.00
2022-10-15T14:56:20.961Z,100.00
2022-10-15T14:58:56.971Z,100.00
2022-10-15T15:01:27.948Z,100.00
2022-10-15T15:03:57.497Z,100.00
2022-10-15T15:06:25.968Z,100.00
2022-10-15T15:08:58.000Z,100.00
2022-10-15T15:11:26.500Z,100.00
2022-10-15T15:13:57.705Z,100.00
2022-10-15T15:16:25.918Z,100.00
2022-10-15T15:18:54.567Z,100.00
2022-10-15T15:21:26.320Z,100.00
2022-10-15T15:23:54.686Z,100.00
2022-10-15T15:26:25.876Z,100.00
2022-10-15T15:28:55.342Z,100.00
2022-10-15T15:31:23.932Z,100.00
2022-10-15T15:33:52.054Z,100.00
2022-10-15T15:36:22.536Z,100.00
2022-10-15T15:38:52.146Z,100.00
2022-10-15T15:41:22.862Z,100.00
2022-10-15T15:43:51.692Z,100.00
2022-10-15T15:46:19.992Z,100.00
2022-10-15T15:48:49.689Z,100.00
2022-10-15T15:51:32.485Z,100.00
2022-10-15T15:54:05.180Z,100.00
2022-10-15T15:56:35.096Z,100.00
2022-10-15T15:59:03.948Z,100.00
2022-10-15T16:01:32.980Z,100.00
2022-10-15T16:04:02.183Z,100.00
2022-10-15T16:06:30.455Z,100.00
2022-10-15T16:09:02.562Z,100.00
2022-10-15T16:11:36.422Z,100.00
2022-10-15T16:14:09.199Z,100.00
2022-10-15T16:16:38.104Z,100.00
2022-10-15T16:19:08.712Z,100.00
2022-10-15T16:21:37.053Z,100.00
2022-10-15T16:24:07.837Z,100.00
2022-10-15T16:26:36.108Z,100.00
2022-10-15T16:29:04.411Z,100.00
2022-10-15T16:31:37.469Z,100.00
2022-10-15T16:34:06.066Z,100.00
2022-10-15T16:36:34.503Z,100.00
2022-10-15T16:39:04.608Z,100.00
2022-10-15T16:41:32.918Z,100.00
2022-10-15T16:44:01.107Z,100.00
2022-10-15T16:46:29.295Z,100.00
2022-10-15T16:48:59.035Z,100.00
2022-10-15T16:51:28.377Z,100.00
2022-10-15T16:53:59.205Z,100.00
2022-10-15T16:56:30.939Z,100.00
2022-10-15T16:58:58.952Z,100.00
2022-10-15T17:01:29.346Z,100.00
2022-10-15T17:04:00.678Z,100.00
2022-10-15T17:06:30.909Z,100.00
2022-10-15T17:09:05.194Z,100.00
2022-10-15T17:11:38.646Z,100.00
2022-10-15T17:14:09.320Z,100.00
2022-10-15T17:16:52.123Z,100.00
2022-10-15T17:19:30.349Z,100.00
2022-10-15T17:22:01.418Z,100.00
2022-10-15T17:24:29.695Z,100.00
2022-10-15T17:26:58.352Z,100.00
2022-10-15T17:29:30.576Z,100.00
2022-10-15T17:32:03.121Z,100.00
2022-10-15T17:34:32.069Z,100.00
2022-10-15T17:37:00.263Z,100.00
2022-10-15T17:39:31.599Z,100.00
2022-10-15T17:41:59.993Z,100.00
2022-10-15T17:44:30.172Z,100.00
2022-10-15T17:46:58.500Z,100.00
2022-10-15T17:49:29.749Z,100.00
2022-10-15T17:51:59.625Z,100.00
2022-10-15T17:54:28.511Z,100.00
2022-10-15T17:56:56.830Z,100.00
2022-10-15T17:59:25.557Z,100.00
2022-10-15T18:01:58.649Z,100.00
2022-10-15T18:04:31.293Z,100.00
2022-10-15T18:07:00.037Z,100.00
2022-10-15T18:09:28.501Z,100.00
2022-10-15T18:12:02.188Z,100.00
2022-10-15T18:14:35.368Z,100.00
2022-10-15T18:17:06.321Z,100.00
2022-10-15T18:19:34.526Z,100.00
2022-10-15T18:22:03.097Z,100.00
2022-10-15T18:24:31.324Z,100.00
2022-10-15T18:27:00.730Z,100.00
2022-10-15T18:29:30.762Z,100.00
2022-10-15T18:32:00.300Z,100.00
2022-10-15T18:34:33.852Z,100.00
2022-10-15T18:37:02.293Z,100.00
2022-10-15T18:39:30.661Z,100.00
2022-10-15T18:41:58.891Z,100.00
2022-10-15T18:44:29.390Z,100.00
2022-10-15T18:46:59.766Z,100.00
2022-10-15T18:49:27.781Z,100.00
2022-10-15T18:51:57.421Z,100.00
2022-10-15T18:54:36.772Z,100.00
2022-10-15T18:57:05.404Z,100.00
2022-10-15T18:59:33.619Z,100.00
2022-10-15T19:02:04.433Z,100.00
2022-10-15T19:04:36.957Z,100.00
2022-10-15T19:07:07.664Z,100.00
2022-10-15T19:09:36.140Z,100.00
2022-10-15T19:12:04.769Z,100.00
2022-10-15T19:14:34.010Z,100.00
2022-10-15T19:17:03.675Z,100.00
2022-10-15T19:19:32.161Z,100.00
2022-10-15T19:22:01.944Z,100.00
2022-10-15T19:24:30.229Z,100.00
2022-10-15T19:26:58.484Z,100.00
2022-10-15T19:29:29.282Z,100.00
2022-10-15T19:32:00.435Z,100.00
2022-10-15T19:34:28.804Z,100.00
2022-10-15T19:36:59.938Z,100.00
2022-10-15T19:39:33.019Z,100.00
2022-10-15T19:42:02.336Z,100.00
2022-10-15T19:44:30.770Z,100.00
2022-10-15T19:46:59.040Z,100.00
2022-10-15T19:49:27.874Z,100.00
2022-10-15T19:51:56.895Z,100.00
2022-10-15T19:56:53.869Z,100.00
2022-10-15T19:59:22.340Z,100.00
2022-10-15T20:01:50.614Z,100.00
2022-10-15T20:04:21.850Z,100.00
2022-10-15T20:06:52.947Z,100.00
2022-10-15T20:09:22.830Z,100.00
2022-10-15T20:11:51.389Z,100.00
2022-10-15T20:14:19.549Z,100.00
2022-10-15T20:16:47.740Z,100.00
2022-10-15T20:19:16.952Z,100.00
2022-10-15T20:21:45.624Z,100.00
2022-10-15T20:24:13.676Z,100.00
2022-10-15T20:26:44.120Z,100.00
2022-10-15T20:29:17.365Z,100.00
2022-10-15T20:31:45.493Z,100.00
2022-10-15T20:34:13.540Z,100.00
2022-10-15T20:36:42.221Z,100.00
2022-10-15T20:39:12.360Z,100.00
2022-10-15T20:41:40.990Z,100.00
2022-10-15T20:44:11.063Z,100.00
2022-10-15T20:47:02.718Z,100.00
2022-10-15T20:49:38.570Z,100.00
2022-10-15T20:52:07.947Z,100.00
2022-10-15T20:54:37.254Z,100.00
2022-10-15T20:57:06.599Z,100.00
2022-10-15T20:59:34.619Z,100.00
2022-10-15T21:02:02.707Z,100.00
2022-10-15T21:04:30.806Z,100.00
2022-10-15T21:07:00.033Z,100.00
2022-10-15T21:09:28.311Z,100.00
2022-10-15T21:11:56.382Z,100.00
2022-10-15T21:14:25.829Z,100.00
2022-10-15T21:16:53.782Z,100.00
2022-10-15T21:19:21.835Z,100.00
2022-10-15T21:21:49.942Z,100.00
2022-10-15T21:24:20.708Z,100.00
2022-10-15T21:26:48.891Z,100.00
2022-10-15T21:29:17.586Z,100.00
2022-10-15T21:31:45.749Z,100.00
2022-10-15T21:34:14.958Z,100.00
2022-10-15T21:36:44.109Z,100.00
2022-10-15T21:39:12.750Z,100.00
2022-10-15T21:41:44.441Z,100.00
2022-10-15T21:44:12.917Z,100.00
2022-10-15T21:46:41.618Z,100.00
2022-10-15T21:49:10.979Z,100.00
2022-10-15T21:51:39.177Z,100.00
2022-10-15T21:54:08.134Z,100.00
2022-10-15T21:56:37.590Z,100.00
2022-10-15T21:59:05.721Z,100.00
2022-10-15T22:01:37.884Z,100.00
2022-10-15T22:04:09.704Z,100.00
2022-10-15T22:06:40.219Z,100.00
2022-10-15T22:09:10.176Z,100.00
2022-10-15T22:11:40.150Z,100.00
2022-10-15T22:14:11.250Z,100.00
2022-10-15T22:16:41.246Z,100.00
2022-10-15T22:19:13.636Z,100.00
2022-10-15T22:21:42.988Z,100.00
2022-10-15T22:24:15.318Z,100.00
2022-10-15T22:26:50.276Z,100.00
2022-10-15T22:29:31.808Z,100.00
2022-10-15T22:32:03.578Z,100.00
2022-10-15T22:34:31.721Z,100.00
2022-10-15T22:36:59.919Z,100.00
2022-10-15T22:39:28.142Z,100.00
2022-10-15T22:41:58.513Z,100.00
2022-10-15T22:44:26.571Z,100.00
2022-10-15T22:46:54.867Z,100.00
2022-10-15T22:49:22.978Z,100.00
2022-10-15T22:51:51.756Z,100.00
2022-10-15T22:54:24.309Z,100.00
2022-10-15T22:56:52.468Z,100.00
2022-10-15T22:59:21.343Z,100.00
2022-10-15T23:01:49.727Z,100.00
2022-10-15T23:04:17.691Z,100.00
2022-10-15T23:06:46.087Z,100.00
2022-10-15T23:09:18.422Z,100.00
2022-10-15T23:11:46.925Z,100.00
2022-10-15T23:14:16.429Z,100.00
2022-10-15T23:16:48.346Z,100.00
2022-10-15T23:19:19.238Z,100.00
2022-10-15T23:21:51.506Z,100.00
2022-10-15T23:24:21.841Z,100.00
2022-10-15T23:26:49.923Z,100.00
2022-10-15T23:29:20.980Z,100.00
2022-10-15T23:31:50.490Z,100.00
2022-10-15T23:34:22.458Z,100.00
2022-10-15T23:36:51.584Z,100.00
2022-10-15T23:39:25.716Z,100.00
2022-10-15T23:41:55.258Z,100.00
2022-10-15T23:44:25.734Z,100.00
2022-10-15T23:46:54.801Z,100.00
2022-10-15T23:49:22.870Z,100.00
2022-10-15T23:51:51.344Z,100.00
2022-10-15T23:54:21.700Z,100.00
2022-10-15T23:56:49.855Z,100.00
2022-10-15T23:59:18.340Z,100.00
